Manakin, Virginia
Current Conditions -  °F | °C
As of 3:54 PM on Friday 19 Dec 2014 (Local Time) from KOFP Reporting Station
Clear Clear  
Wind Chill: 39°   Ceiling: Unl
Heat Index: 43°   Visibility: 10mi
Dew Point: 25°   Wind: 6mph
Humidity: 49%   Direction: 310°NW
Pressure: 30.17"   Gusts: NA
Location:  37.6517°N, 77.7212°W
Report Text: KOFP 192054Z AUTO 31005KT 10SM CLR 06/M04 A3017 RMK AO2 SLP217 T00611039 53006
Loading
Personal Weather Stations






























Interactive Weather Map New forecast layout! Learn more

10-Day Weather Forecast

Advertisements
Track Severe Weather on mobile